createdAt,value
2018-08-12T00:01:23.170Z,22.03
2018-08-12T00:03:49.529Z,22.04
2018-08-12T00:06:15.908Z,21.99
2018-08-12T00:08:42.232Z,22.02
2018-08-12T00:11:08.569Z,22.02
2018-08-12T00:13:34.936Z,21.98
2018-08-12T00:16:01.300Z,21.98
2018-08-12T00:18:27.630Z,22.02
2018-08-12T00:20:53.988Z,22.01
2018-08-12T00:23:20.316Z,22.01
2018-08-12T00:25:46.699Z,21.99
2018-08-12T00:28:13.087Z,21.96
2018-08-12T00:30:39.488Z,21.98
2018-08-12T00:33:05.814Z,21.99
2018-08-12T00:35:32.156Z,22.02
2018-08-12T00:37:58.676Z,21.99
2018-08-12T00:40:25.056Z,22.01
2018-08-12T00:42:51.430Z,21.99
2018-08-12T00:45:17.777Z,22.02
2018-08-12T00:47:44.164Z,21.99
2018-08-12T00:50:10.566Z,22.02
2018-08-12T00:52:36.965Z,21.98
2018-08-12T00:55:03.398Z,21.99
2018-08-12T00:57:29.789Z,22.04
2018-08-12T00:59:56.147Z,21.98
2018-08-12T01:02:22.543Z,21.98
2018-08-12T01:04:48.883Z,21.99
2018-08-12T01:07:15.266Z,22.01
2018-08-12T01:09:41.597Z,21.95
2018-08-12T01:12:08.066Z,21.97
2018-08-12T01:14:34.424Z,21.97
2018-08-12T01:17:00.774Z,21.97
2018-08-12T01:19:27.175Z,21.97
2018-08-12T01:21:53.616Z,21.96
2018-08-12T01:24:20.011Z,21.96
2018-08-12T01:26:46.361Z,21.95
2018-08-12T01:29:12.702Z,21.96
2018-08-12T01:31:39.068Z,21.94
2018-08-12T01:34:05.449Z,21.97
2018-08-12T01:36:31.900Z,21.94
2018-08-12T01:38:58.248Z,21.91
2018-08-12T01:41:24.600Z,21.89
2018-08-12T01:43:50.937Z,21.92
2018-08-12T01:46:17.265Z,21.91
2018-08-12T01:48:43.637Z,21.85
2018-08-12T01:51:09.985Z,21.87
2018-08-12T01:53:36.340Z,21.88
2018-08-12T01:56:02.774Z,21.88
2018-08-12T01:58:29.155Z,21.87
2018-08-12T02:00:55.488Z,21.85
2018-08-12T02:03:21.873Z,21.85
2018-08-12T02:05:48.289Z,21.84
2018-08-12T02:08:14.628Z,21.88
2018-08-12T02:10:40.972Z,21.88
2018-08-12T02:13:07.542Z,21.89
2018-08-12T02:15:33.886Z,21.90
2018-08-12T02:18:00.235Z,21.84
2018-08-12T02:20:26.605Z,21.89
2018-08-12T02:22:53.008Z,21.85
2018-08-12T02:25:19.351Z,21.85
2018-08-12T02:27:45.744Z,21.84
2018-08-12T02:30:12.102Z,21.85
2018-08-12T02:32:38.473Z,21.83
2018-08-12T02:35:04.826Z,21.87
2018-08-12T02:37:31.182Z,21.85
2018-08-12T02:39:57.531Z,21.88
2018-08-12T02:42:23.888Z,21.88
2018-08-12T02:44:50.243Z,21.85
2018-08-12T02:47:16.594Z,21.88
2018-08-12T02:49:42.972Z,21.85
2018-08-12T02:52:09.310Z,21.88
2018-08-12T02:54:35.685Z,21.84
2018-08-12T02:57:02.095Z,21.87
2018-08-12T02:59:28.459Z,21.87
2018-08-12T03:01:54.869Z,21.83
2018-08-12T03:04:21.205Z,21.88
2018-08-12T03:06:47.605Z,21.85
2018-08-12T03:09:13.981Z,21.83
2018-08-12T03:11:40.337Z,21.83
2018-08-12T03:14:06.701Z,21.85
2018-08-12T03:16:33.089Z,21.84
2018-08-12T03:18:59.554Z,21.83
2018-08-12T03:21:25.888Z,21.82
2018-08-12T03:23:52.241Z,21.84
2018-08-12T03:26:18.619Z,21.80
2018-08-12T03:28:44.959Z,21.82
2018-08-12T03:31:11.318Z,21.80
2018-08-12T03:33:37.667Z,21.83
2018-08-12T03:36:04.018Z,21.85
2018-08-12T03:38:30.376Z,21.80
2018-08-12T03:40:56.746Z,21.76
2018-08-12T03:43:23.109Z,21.82
2018-08-12T03:45:49.450Z,21.82
2018-08-12T03:48:15.900Z,21.83
2018-08-12T03:50:42.305Z,21.85
2018-08-12T03:53:08.654Z,21.85
2018-08-12T03:55:34.993Z,21.88
2018-08-12T03:58:01.331Z,21.94
2018-08-12T04:00:27.733Z,21.92
2018-08-12T04:02:54.077Z,21.95
2018-08-12T04:05:20.437Z,21.98
2018-08-12T04:07:46.793Z,21.98
2018-08-12T04:10:13.191Z,22.03
2018-08-12T04:12:39.541Z,22.03
2018-08-12T04:15:05.926Z,22.06
2018-08-12T04:17:32.247Z,22.02
2018-08-12T04:19:58.644Z,22.05
2018-08-12T04:22:24.999Z,22.02
2018-08-12T04:24:51.390Z,22.06
2018-08-12T04:27:17.738Z,22.06
2018-08-12T04:29:44.124Z,22.02
2018-08-12T04:32:10.468Z,22.01
2018-08-12T04:34:36.832Z,22.05
2018-08-12T04:37:03.234Z,22.04
2018-08-12T04:39:29.623Z,22.04
2018-08-12T04:41:56.767Z,22.06
2018-08-12T04:44:23.180Z,22.04
2018-08-12T04:46:49.525Z,22.05
2018-08-12T04:49:15.944Z,22.05
2018-08-12T04:51:42.341Z,22.08
2018-08-12T04:54:08.743Z,22.06
2018-08-12T04:56:35.195Z,22.03
2018-08-12T04:59:01.526Z,22.05
2018-08-12T05:01:27.876Z,22.14
2018-08-12T05:03:54.299Z,22.16
2018-08-12T05:06:20.647Z,22.19
2018-08-12T05:08:46.994Z,22.20
2018-08-12T05:11:13.427Z,22.24
2018-08-12T05:13:39.763Z,22.23
2018-08-12T05:16:06.126Z,22.31
2018-08-12T05:18:32.532Z,22.31
2018-08-12T05:20:58.876Z,22.33
2018-08-12T05:23:25.292Z,22.33
2018-08-12T05:25:51.736Z,22.41
2018-08-12T05:28:18.114Z,22.40
2018-08-12T05:30:44.482Z,22.42
2018-08-12T05:33:10.892Z,22.42
2018-08-12T05:35:37.311Z,22.43
2018-08-12T05:38:03.696Z,22.46
2018-08-12T05:40:30.076Z,22.44
2018-08-12T05:42:56.411Z,22.48
2018-08-12T05:45:22.828Z,22.49
2018-08-12T05:47:49.185Z,22.54
2018-08-12T05:50:15.598Z,22.51
2018-08-12T05:52:42.034Z,22.53
2018-08-12T05:55:08.428Z,22.53
2018-08-12T05:57:34.937Z,22.55
2018-08-12T06:00:01.345Z,22.56
2018-08-12T06:02:27.730Z,22.61
2018-08-12T06:04:54.152Z,22.61
2018-08-12T06:07:20.519Z,22.61
2018-08-12T06:09:46.926Z,22.62
2018-08-12T06:12:13.254Z,22.64
2018-08-12T06:14:39.672Z,22.63
2018-08-12T06:17:06.046Z,22.66
2018-08-12T06:19:32.429Z,22.68
2018-08-12T06:21:58.786Z,22.69
2018-08-12T06:24:25.153Z,22.70
2018-08-12T06:26:51.544Z,22.70
2018-08-12T06:29:17.863Z,22.70
2018-08-12T06:31:44.256Z,22.73
2018-08-12T06:34:10.633Z,22.72
2018-08-12T06:36:37.127Z,22.75
2018-08-12T06:39:03.489Z,22.73
2018-08-12T06:41:29.892Z,22.76
2018-08-12T06:43:56.249Z,22.72
2018-08-12T06:46:22.724Z,22.73
2018-08-12T06:48:49.068Z,22.75
2018-08-12T06:51:15.489Z,22.77
2018-08-12T06:53:41.893Z,22.78
2018-08-12T06:56:08.310Z,22.79
2018-08-12T06:58:34.703Z,22.80
2018-08-12T07:01:01.137Z,22.80
2018-08-12T07:03:27.537Z,22.79
2018-08-12T07:05:53.912Z,22.79
2018-08-12T07:08:20.307Z,22.80
2018-08-12T07:10:46.661Z,22.81
2018-08-12T07:13:13.051Z,22.80
2018-08-12T07:15:39.417Z,22.80
2018-08-12T07:18:05.851Z,22.82
2018-08-12T07:20:32.235Z,22.82
2018-08-12T07:22:58.602Z,22.82
2018-08-12T07:25:25.018Z,22.83
2018-08-12T07:27:51.353Z,22.83
2018-08-12T07:30:17.772Z,22.83
2018-08-12T07:32:44.250Z,22.83
2018-08-12T07:35:10.640Z,22.84
2018-08-12T07:37:37.039Z,22.84
2018-08-12T07:40:03.414Z,22.84
2018-08-12T07:42:29.767Z,22.86
2018-08-12T07:44:56.264Z,22.85
2018-08-12T07:47:22.602Z,22.84
2018-08-12T07:49:49.000Z,22.90
2018-08-12T07:52:15.361Z,22.87
2018-08-12T07:54:41.735Z,22.90
2018-08-12T07:57:08.107Z,22.87
2018-08-12T07:59:34.498Z,22.87
2018-08-12T08:02:00.961Z,22.90
2018-08-12T08:04:27.320Z,22.86
2018-08-12T08:06:53.705Z,22.93
2018-08-12T08:09:20.716Z,22.88
2018-08-12T08:11:47.129Z,22.88
2018-08-12T08:14:13.715Z,22.92
2018-08-12T08:16:40.073Z,22.93
2018-08-12T08:19:06.449Z,22.88
2018-08-12T08:21:32.804Z,22.88
2018-08-12T08:23:59.222Z,22.87
2018-08-12T08:26:25.597Z,22.88
2018-08-12T08:28:51.958Z,22.92
2018-08-12T08:31:18.375Z,22.85
2018-08-12T08:33:44.823Z,22.88
2018-08-12T08:36:11.147Z,22.87
2018-08-12T08:38:37.503Z,22.88
2018-08-12T08:41:03.860Z,22.86
2018-08-12T08:43:30.294Z,22.85
2018-08-12T08:45:56.689Z,22.86
2018-08-12T08:48:23.087Z,22.83
2018-08-12T08:50:49.482Z,22.84
2018-08-12T08:53:15.994Z,22.80
2018-08-12T08:55:42.469Z,22.83
2018-08-12T08:58:09.006Z,22.80
2018-08-12T09:00:35.374Z,22.78
2018-08-12T09:03:01.806Z,22.78
2018-08-12T09:05:28.211Z,22.82
2018-08-12T09:07:54.611Z,22.81
2018-08-12T09:10:21.006Z,22.78
2018-08-12T09:12:47.334Z,22.71
2018-08-12T09:15:13.734Z,22.75
2018-08-12T09:17:40.092Z,22.76
2018-08-12T09:20:06.483Z,22.72
2018-08-12T09:22:32.889Z,22.77
2018-08-12T09:24:59.301Z,22.72
2018-08-12T09:27:25.637Z,22.75
2018-08-12T09:29:52.005Z,22.70
2018-08-12T09:32:18.366Z,22.68
2018-08-12T09:34:44.677Z,22.68
2018-08-12T09:37:11.041Z,22.71
2018-08-12T09:39:37.402Z,22.68
2018-08-12T09:42:03.770Z,22.67
2018-08-12T09:44:30.160Z,22.67
2018-08-12T09:46:56.583Z,22.64
2018-08-12T09:49:22.951Z,22.61
2018-08-12T09:51:49.479Z,22.63
2018-08-12T09:54:15.671Z,22.66
2018-08-12T09:56:42.033Z,22.66
2018-08-12T09:59:08.408Z,22.61
2018-08-12T10:01:34.768Z,22.58
2018-08-12T10:04:01.108Z,22.55
2018-08-12T10:06:27.503Z,22.63
2018-08-12T10:08:53.869Z,22.56
2018-08-12T10:11:20.243Z,22.61
2018-08-12T10:13:46.589Z,22.56
2018-08-12T10:16:13.007Z,22.64
2018-08-12T10:18:39.340Z,22.62
2018-08-12T10:21:05.761Z,22.63
2018-08-12T10:23:32.078Z,22.61
2018-08-12T10:25:58.410Z,22.65
2018-08-12T10:28:24.811Z,22.63
2018-08-12T10:30:51.176Z,22.65
2018-08-12T10:33:17.520Z,22.63
2018-08-12T10:35:43.906Z,22.63
2018-08-12T10:38:10.301Z,22.62
2018-08-12T10:40:36.651Z,22.63
2018-08-12T10:43:03.035Z,22.60
2018-08-12T10:45:29.388Z,22.57
2018-08-12T10:47:55.812Z,22.58
2018-08-12T10:50:22.201Z,22.62
2018-08-12T10:52:48.740Z,22.61
2018-08-12T10:55:15.094Z,22.65
2018-08-12T10:57:41.477Z,22.61
2018-08-12T11:00:07.829Z,22.64
2018-08-12T11:02:34.184Z,22.62
2018-08-12T11:05:00.580Z,22.60
2018-08-12T11:07:26.972Z,22.64
2018-08-12T11:09:53.319Z,22.63
2018-08-12T11:12:19.742Z,22.64
2018-08-12T11:14:46.041Z,22.63
2018-08-12T11:17:12.434Z,22.62
2018-08-12T11:19:38.789Z,22.63
2018-08-12T11:22:05.153Z,22.65
2018-08-12T11:24:31.864Z,22.67
2018-08-12T11:26:58.314Z,22.65
2018-08-12T11:29:24.803Z,22.62
2018-08-12T11:31:51.179Z,22.64
2018-08-12T11:34:17.508Z,22.63
2018-08-12T11:36:43.886Z,22.63
2018-08-12T11:39:10.242Z,22.62
2018-08-12T11:41:36.652Z,22.61
2018-08-12T11:44:03.016Z,22.56
2018-08-12T11:46:29.367Z,22.60
2018-08-12T11:48:55.682Z,22.62
2018-08-12T11:51:22.024Z,22.54
2018-08-12T11:53:48.431Z,22.55
2018-08-12T11:56:14.847Z,22.58
2018-08-12T11:58:41.229Z,22.57
2018-08-12T12:01:08.998Z,22.60
2018-08-12T12:03:35.330Z,22.57
2018-08-12T12:06:01.802Z,22.57
2018-08-12T12:08:28.179Z,22.57
2018-08-12T12:10:54.538Z,22.58
2018-08-12T12:13:20.943Z,22.62
2018-08-12T12:15:48.281Z,22.61
2018-08-12T12:18:14.633Z,22.63
2018-08-12T12:20:41.049Z,22.61
2018-08-12T12:23:07.397Z,22.57
2018-08-12T12:25:33.747Z,22.66
2018-08-12T12:28:00.240Z,22.66
2018-08-12T12:30:26.629Z,22.61
2018-08-12T12:32:52.963Z,22.61
2018-08-12T12:35:19.300Z,22.67
2018-08-12T12:37:45.670Z,22.63
2018-08-12T12:40:12.042Z,22.62
2018-08-12T12:42:38.406Z,22.63
2018-08-12T12:45:04.755Z,22.65
2018-08-12T12:47:31.112Z,22.65
2018-08-12T12:49:57.463Z,22.64
2018-08-12T12:52:23.825Z,22.66
2018-08-12T12:54:50.178Z,22.66
2018-08-12T12:57:16.535Z,22.64
2018-08-12T12:59:42.882Z,22.70
2018-08-12T13:02:09.351Z,22.65
2018-08-12T13:04:35.747Z,22.64
2018-08-12T13:07:02.074Z,22.66
2018-08-12T13:09:28.452Z,22.63
2018-08-12T13:11:54.771Z,22.66
2018-08-12T13:14:21.144Z,22.69
2018-08-12T13:16:47.471Z,22.63
2018-08-12T13:19:13.919Z,22.64
2018-08-12T13:21:40.402Z,22.63
2018-08-12T13:24:06.803Z,22.65
2018-08-12T13:26:33.152Z,22.66
2018-08-12T13:28:59.495Z,22.70
2018-08-12T13:31:25.919Z,22.72
2018-08-12T13:33:52.246Z,22.69
2018-08-12T13:36:18.620Z,22.66
2018-08-12T13:38:44.991Z,22.63
2018-08-12T13:41:11.333Z,22.69
2018-08-12T13:43:37.907Z,22.67
2018-08-12T13:46:04.190Z,22.67
2018-08-12T13:48:30.519Z,22.69
2018-08-12T13:50:56.878Z,22.73
2018-08-12T13:53:23.218Z,22.68
2018-08-12T13:55:49.619Z,22.67
2018-08-12T13:58:16.186Z,22.70
2018-08-12T14:00:42.883Z,22.69
2018-08-12T14:03:09.285Z,22.66
2018-08-12T14:05:35.648Z,22.70
2018-08-12T14:08:01.988Z,22.63
2018-08-12T14:10:28.411Z,22.66
2018-08-12T14:12:54.771Z,22.64
2018-08-12T14:15:21.131Z,22.66
2018-08-12T14:17:47.434Z,22.65
2018-08-12T14:20:13.781Z,22.67
2018-08-12T14:22:40.177Z,22.67
2018-08-12T14:25:06.534Z,22.68
2018-08-12T14:27:32.901Z,22.75
2018-08-12T14:29:59.265Z,22.71
2018-08-12T14:32:25.659Z,22.73
2018-08-12T14:34:52.041Z,22.70
2018-08-12T14:37:18.385Z,22.69
2018-08-12T14:39:44.753Z,22.69
2018-08-12T14:42:11.152Z,22.71
2018-08-12T14:44:37.596Z,22.70
2018-08-12T14:47:04.066Z,22.72
2018-08-12T14:49:30.439Z,22.73
2018-08-12T14:51:56.772Z,22.71
2018-08-12T14:54:23.148Z,22.72
2018-08-12T14:56:49.497Z,22.75
2018-08-12T14:59:15.855Z,22.73
2018-08-12T15:01:42.386Z,22.70
2018-08-12T15:04:08.740Z,22.77
2018-08-12T15:06:35.141Z,22.75
2018-08-12T15:09:01.473Z,22.77
2018-08-12T15:11:27.814Z,22.72
2018-08-12T15:13:54.149Z,22.70
2018-08-12T15:16:20.656Z,22.73
2018-08-12T15:18:47.062Z,22.71
2018-08-12T15:21:13.426Z,22.71
2018-08-12T15:23:40.058Z,22.78
2018-08-12T15:26:06.453Z,22.71
2018-08-12T15:28:32.821Z,22.75
2018-08-12T15:30:59.191Z,22.73
2018-08-12T15:33:25.685Z,22.76
2018-08-12T15:35:52.107Z,22.75
2018-08-12T15:38:18.436Z,22.79
2018-08-12T15:40:44.858Z,22.81
2018-08-12T15:43:11.255Z,22.79
2018-08-12T15:45:37.686Z,22.78
2018-08-12T15:48:04.090Z,22.76
2018-08-12T15:50:30.605Z,22.77
2018-08-12T15:52:56.988Z,22.76
2018-08-12T15:55:23.350Z,22.77
2018-08-12T15:57:49.708Z,22.75
2018-08-12T16:00:16.040Z,22.77
2018-08-12T16:02:42.582Z,22.77
2018-08-12T16:05:08.948Z,22.73
2018-08-12T16:07:35.312Z,22.75
2018-08-12T16:10:01.647Z,22.76
2018-08-12T16:12:27.976Z,22.72
2018-08-12T16:14:54.306Z,22.78
2018-08-12T16:17:20.636Z,22.78
2018-08-12T16:19:46.993Z,22.75
2018-08-12T16:22:13.402Z,22.78
2018-08-12T16:24:39.772Z,22.76
2018-08-12T16:27:06.127Z,22.70
2018-08-12T16:29:32.552Z,22.75
2018-08-12T16:31:58.945Z,22.73
2018-08-12T16:34:25.372Z,22.78
2018-08-12T16:36:51.722Z,22.73
2018-08-12T16:39:18.078Z,22.76
2018-08-12T16:41:44.444Z,22.76
2018-08-12T16:44:10.820Z,22.75
2018-08-12T16:46:37.316Z,22.78
2018-08-12T16:49:03.697Z,22.72
2018-08-12T16:51:30.040Z,22.71
2018-08-12T16:53:56.377Z,22.72
2018-08-12T16:56:22.768Z,22.71
2018-08-12T16:58:49.127Z,22.72
2018-08-12T17:01:16.043Z,22.72
2018-08-12T17:03:42.582Z,22.69
2018-08-12T17:06:08.927Z,22.76
2018-08-12T17:08:35.285Z,22.73
2018-08-12T17:11:01.599Z,22.71
2018-08-12T17:13:28.103Z,22.68
2018-08-12T17:15:54.448Z,22.69
2018-08-12T17:18:20.831Z,22.68
2018-08-12T17:20:47.616Z,22.70
2018-08-12T17:23:13.978Z,22.72
2018-08-12T17:25:40.431Z,22.66
2018-08-12T17:28:06.769Z,22.69
2018-08-12T17:30:33.127Z,22.66
2018-08-12T17:32:59.510Z,22.65
2018-08-12T17:35:25.828Z,22.65
2018-08-12T17:37:52.204Z,22.65
2018-08-12T17:40:18.766Z,22.65
2018-08-12T17:42:45.305Z,22.64
2018-08-12T17:45:11.626Z,22.63
2018-08-12T17:47:37.976Z,22.63
2018-08-12T17:50:04.363Z,22.57
2018-08-12T17:52:30.745Z,22.60
2018-08-12T17:54:57.158Z,22.64
2018-08-12T17:57:23.519Z,22.60
2018-08-12T17:59:49.924Z,22.56
2018-08-12T18:02:16.285Z,22.61
2018-08-12T18:04:42.727Z,22.56
2018-08-12T18:07:09.117Z,22.56
2018-08-12T18:09:35.472Z,22.52
2018-08-12T18:12:01.810Z,22.60
2018-08-12T18:14:28.156Z,22.58
2018-08-12T18:16:54.499Z,22.55
2018-08-12T18:19:20.894Z,22.56
2018-08-12T18:21:47.368Z,22.50
2018-08-12T18:24:13.758Z,22.57
2018-08-12T18:26:40.243Z,22.56
2018-08-12T18:29:06.528Z,22.51
2018-08-12T18:31:33.043Z,22.51
2018-08-12T18:33:59.469Z,22.48
2018-08-12T18:36:25.806Z,22.50
2018-08-12T18:38:52.139Z,22.51
2018-08-12T18:41:18.480Z,22.47
2018-08-12T18:43:44.863Z,22.53
2018-08-12T18:46:11.252Z,22.49
2018-08-12T18:48:37.596Z,22.47
2018-08-12T18:51:03.972Z,22.47
2018-08-12T18:53:30.314Z,22.48
2018-08-12T18:55:56.695Z,22.52
2018-08-12T18:58:23.085Z,22.48
2018-08-12T19:00:49.462Z,22.42
2018-08-12T19:03:15.939Z,22.44
2018-08-12T19:05:42.482Z,22.44
2018-08-12T19:08:08.822Z,22.37
2018-08-12T19:10:35.160Z,22.32
2018-08-12T19:13:01.499Z,22.39
2018-08-12T19:15:27.857Z,22.41
2018-08-12T19:17:54.202Z,22.27
2018-08-12T19:20:20.786Z,22.35
2018-08-12T19:22:47.103Z,22.33
2018-08-12T19:25:13.464Z,22.28
2018-08-12T19:27:39.873Z,22.34
2018-08-12T19:30:06.299Z,22.29
2018-08-12T19:32:32.620Z,22.34
2018-08-12T19:34:58.965Z,22.27
2018-08-12T19:37:25.335Z,22.28
2018-08-12T19:39:51.724Z,22.32
2018-08-12T19:42:18.114Z,22.32
2018-08-12T19:44:44.444Z,22.28
2018-08-12T19:47:10.809Z,22.24
2018-08-12T19:49:37.464Z,22.23
2018-08-12T19:52:03.814Z,22.24
2018-08-12T19:54:30.136Z,22.28
2018-08-12T19:56:56.455Z,22.25
2018-08-12T19:59:22.791Z,22.13
2018-08-12T20:01:49.206Z,22.19
2018-08-12T20:04:15.557Z,22.14
2018-08-12T20:06:41.958Z,22.13
2018-08-12T20:09:08.288Z,22.12
2018-08-12T20:11:34.606Z,22.13
2018-08-12T20:14:00.948Z,22.10
2018-08-12T20:16:27.329Z,22.10
2018-08-12T20:18:53.735Z,22.04
2018-08-12T20:21:20.147Z,22.10
2018-08-12T20:23:46.499Z,22.04
2018-08-12T20:26:12.842Z,22.05
2018-08-12T20:28:39.178Z,21.96
2018-08-12T20:31:05.505Z,21.96
2018-08-12T20:33:31.832Z,22.01
2018-08-12T20:35:58.367Z,21.96
2018-08-12T20:38:24.791Z,21.98
2018-08-12T20:40:51.178Z,21.99
2018-08-12T20:43:17.516Z,21.96
2018-08-12T20:45:43.851Z,21.94
2018-08-12T20:48:10.185Z,21.98
2018-08-12T20:50:36.557Z,21.94
2018-08-12T20:53:02.881Z,21.94
2018-08-12T20:55:29.214Z,21.98
2018-08-12T20:57:55.574Z,21.97
2018-08-12T21:00:21.913Z,21.97
2018-08-12T21:02:48.262Z,21.98
2018-08-12T21:05:14.613Z,21.99
2018-08-12T21:07:41.043Z,21.97
2018-08-12T21:10:07.412Z,21.95
2018-08-12T21:12:33.768Z,21.97
2018-08-12T21:15:00.127Z,21.93
2018-08-12T21:17:26.466Z,21.95
2018-08-12T21:19:52.824Z,21.92
2018-08-12T21:22:19.179Z,21.97
2018-08-12T21:24:45.515Z,22.01
2018-08-12T21:27:12.021Z,21.97
2018-08-12T21:29:38.368Z,21.97
2018-08-12T21:32:04.718Z,21.97
2018-08-12T21:34:31.071Z,21.98
2018-08-12T21:36:57.405Z,21.97
2018-08-12T21:39:23.797Z,21.96
2018-08-12T21:41:50.253Z,21.98
2018-08-12T21:44:16.598Z,21.93
2018-08-12T21:46:43.079Z,21.94
2018-08-12T21:49:09.428Z,21.98
2018-08-12T21:51:35.846Z,21.92
2018-08-12T21:54:02.170Z,21.95
2018-08-12T21:56:28.663Z,21.94
2018-08-12T21:58:55.020Z,21.94
2018-08-12T22:01:21.376Z,21.94
2018-08-12T22:03:47.758Z,21.97
2018-08-12T22:06:14.078Z,21.96
2018-08-12T22:08:40.420Z,21.94
2018-08-12T22:11:06.758Z,21.99
2018-08-12T22:13:33.165Z,22.04
2018-08-12T22:15:59.494Z,22.01
2018-08-12T22:18:25.880Z,22.02
2018-08-12T22:20:52.322Z,22.04
2018-08-12T22:23:18.848Z,22.05
2018-08-12T22:25:45.355Z,22.04
2018-08-12T22:28:11.698Z,22.05
2018-08-12T22:30:38.035Z,22.07
2018-08-12T22:33:04.363Z,22.06
2018-08-12T22:35:30.721Z,22.03
2018-08-12T22:37:57.086Z,22.05
2018-08-12T22:40:23.415Z,22.04
2018-08-12T22:42:49.879Z,22.05
2018-08-12T22:45:16.343Z,22.05
2018-08-12T22:47:42.727Z,22.06
2018-08-12T22:50:09.105Z,22.03
2018-08-12T22:52:35.495Z,22.05
2018-08-12T22:55:01.836Z,22.05
2018-08-12T22:57:28.171Z,22.03
2018-08-12T22:59:54.525Z,22.07
2018-08-12T23:02:20.891Z,22.07
2018-08-12T23:04:47.202Z,22.07
2018-08-12T23:07:13.539Z,22.05
2018-08-12T23:09:39.862Z,22.05
2018-08-12T23:12:06.250Z,22.05
2018-08-12T23:14:32.611Z,22.06
2018-08-12T23:16:58.950Z,22.07
2018-08-12T23:19:25.303Z,22.06
2018-08-12T23:21:51.611Z,22.03
2018-08-12T23:24:17.944Z,22.06
2018-08-12T23:26:44.373Z,22.03
2018-08-12T23:29:10.707Z,22.06
2018-08-12T23:31:37.047Z,22.02
2018-08-12T23:34:03.366Z,22.04
2018-08-12T23:36:29.697Z,22.03
2018-08-12T23:38:56.124Z,22.02
2018-08-12T23:41:22.486Z,22.06
2018-08-12T23:43:48.835Z,22.04
2018-08-12T23:46:15.183Z,22.05
2018-08-12T23:48:41.535Z,22.06
2018-08-12T23:51:07.910Z,22.02
2018-08-12T23:53:34.256Z,22.03
2018-08-12T23:56:00.591Z,21.98
2018-08-12T23:58:26.971Z,22.05
